createdAt,value
2023-02-01T00:01:12.028Z,3.12
2023-02-01T00:02:43.693Z,3.09
2023-02-01T00:04:16.769Z,3.15
2023-02-01T00:05:56.173Z,3.10
2023-02-01T00:07:27.755Z,3.17
2023-02-01T00:08:59.342Z,3.14
2023-02-01T00:10:30.984Z,3.13
2023-02-01T00:12:03.747Z,3.10
2023-02-01T00:13:36.226Z,3.09
2023-02-01T00:15:08.977Z,3.14
2023-02-01T00:16:40.559Z,3.16
2023-02-01T00:18:12.129Z,3.09
2023-02-01T00:19:45.066Z,3.07
2023-02-01T00:21:18.243Z,3.12
2023-02-01T00:22:49.807Z,3.09
2023-02-01T00:24:21.423Z,3.05
2023-02-01T00:25:53.120Z,2.98
2023-02-01T00:27:24.867Z,2.99
2023-02-01T00:28:56.480Z,3.02
2023-02-01T00:30:28.205Z,3.10
2023-02-01T00:31:59.855Z,3.08
2023-02-01T00:33:31.848Z,3.05
2023-02-01T00:35:05.824Z,3.04
2023-02-01T00:36:37.392Z,3.05
2023-02-01T00:38:08.970Z,3.08
2023-02-01T00:39:40.585Z,3.10
2023-02-01T00:41:13.256Z,3.06
2023-02-01T00:42:44.830Z,3.05
2023-02-01T00:44:16.452Z,3.02
2023-02-01T00:45:48.037Z,3.08
2023-02-01T00:47:20.951Z,3.07
2023-02-01T00:48:52.552Z,3.08
2023-02-01T00:50:25.458Z,3.07
2023-02-01T00:51:57.136Z,3.07
2023-02-01T00:53:28.787Z,3.06
2023-02-01T00:55:00.369Z,3.05
2023-02-01T00:56:31.976Z,3.04
2023-02-01T00:58:03.604Z,3.09
2023-02-01T00:59:35.174Z,3.13
2023-02-01T01:01:07.760Z,3.07
2023-02-01T01:02:39.407Z,3.11
2023-02-01T01:04:11.145Z,3.11
2023-02-01T01:05:44.415Z,3.10
2023-02-01T01:07:15.988Z,3.10
2023-02-01T01:08:47.636Z,3.07
2023-02-01T01:10:19.746Z,3.07
2023-02-01T01:11:53.643Z,3.07
2023-02-01T01:13:25.227Z,3.08
2023-02-01T01:14:56.817Z,3.11
2023-02-01T01:16:29.204Z,3.13
2023-02-01T01:18:00.792Z,3.14
2023-02-01T01:19:32.371Z,3.12
2023-02-01T01:21:06.586Z,3.10
2023-02-01T01:22:38.150Z,3.09
2023-02-01T01:24:09.852Z,3.08
2023-02-01T01:25:41.453Z,3.08
2023-02-01T01:27:13.052Z,3.07
2023-02-01T01:28:44.632Z,3.07
2023-02-01T01:30:17.199Z,3.06
2023-02-01T01:31:48.859Z,3.04
2023-02-01T01:33:20.491Z,3.04
2023-02-01T01:34:52.067Z,3.05
2023-02-01T01:36:25.115Z,3.06
2023-02-01T01:37:56.690Z,3.03
2023-02-01T01:39:28.306Z,3.03
2023-02-01T01:40:59.914Z,3.05
2023-02-01T01:42:31.545Z,3.03
2023-02-01T01:44:03.932Z,3.09
2023-02-01T01:45:35.626Z,3.04
2023-02-01T01:47:07.220Z,3.04
2023-02-01T01:48:38.806Z,3.03
2023-02-01T01:50:12.020Z,3.03
2023-02-01T01:51:47.211Z,3.06
2023-02-01T01:53:20.344Z,3.07
2023-02-01T01:54:52.579Z,3.07
2023-02-01T01:56:24.192Z,3.12
2023-02-01T01:57:56.967Z,3.12
2023-02-01T01:59:28.524Z,3.10
2023-02-01T02:01:00.272Z,3.10
2023-02-01T02:02:31.916Z,3.08
2023-02-01T02:04:03.503Z,3.06
2023-02-01T02:05:35.207Z,3.05
2023-02-01T02:07:10.636Z,3.06
2023-02-01T02:08:42.191Z,3.07
2023-02-01T02:10:14.380Z,3.05
2023-02-01T02:11:45.991Z,3.06
2023-02-01T02:13:17.722Z,3.01
2023-02-01T02:14:49.274Z,3.00
2023-02-01T02:16:28.103Z,2.99
2023-02-01T02:18:01.901Z,3.00
2023-02-01T02:19:45.583Z,2.96
2023-02-01T02:21:19.686Z,2.98
2023-02-01T02:23:17.491Z,2.97
2023-02-01T02:25:03.358Z,2.99
2023-02-01T02:27:23.881Z,2.95
2023-02-01T02:29:23.681Z,2.97
2023-02-01T02:31:14.335Z,2.94
2023-02-01T02:32:53.887Z,2.94
2023-02-01T02:34:27.141Z,2.94
2023-02-01T02:36:00.624Z,2.93
2023-02-01T02:37:35.224Z,2.92
2023-02-01T02:39:09.790Z,2.92
2023-02-01T02:40:45.878Z,2.90
2023-02-01T02:42:39.308Z,2.90
2023-02-01T02:44:32.349Z,2.88
2023-02-01T02:46:24.234Z,2.89
2023-02-01T02:47:57.833Z,2.82
2023-02-01T02:49:35.202Z,2.88
2023-02-01T02:51:26.762Z,2.87
2023-02-01T02:53:18.675Z,2.92
2023-02-01T02:54:51.878Z,2.92
2023-02-01T02:56:42.642Z,2.90
2023-02-01T02:58:33.014Z,2.94
2023-02-01T03:00:25.064Z,2.92
2023-02-01T03:02:15.739Z,2.90
2023-02-01T03:04:06.647Z,2.87
2023-02-01T03:05:41.714Z,2.86
2023-02-01T03:07:14.503Z,2.87
2023-02-01T03:08:47.179Z,2.88
2023-02-01T03:10:25.161Z,2.87
2023-02-01T03:12:16.694Z,2.84
2023-02-01T03:13:50.947Z,2.83
2023-02-01T03:15:23.163Z,2.87
2023-02-01T03:16:56.182Z,2.83
2023-02-01T03:18:32.037Z,2.84
2023-02-01T03:20:04.712Z,2.81
2023-02-01T03:21:39.121Z,2.84
2023-02-01T03:23:10.767Z,2.78
2023-02-01T03:24:43.516Z,2.80
2023-02-01T03:26:19.276Z,2.78
2023-02-01T03:27:53.036Z,2.75
2023-02-01T03:29:26.626Z,2.75
2023-02-01T03:30:58.216Z,2.74
2023-02-01T03:32:29.859Z,2.75
2023-02-01T03:34:01.414Z,2.73
2023-02-01T03:35:34.693Z,2.70
2023-02-01T03:37:09.476Z,2.70
2023-02-01T03:38:42.823Z,2.68
2023-02-01T03:40:14.392Z,2.69
2023-02-01T03:41:47.663Z,2.68
2023-02-01T03:43:19.745Z,2.67
2023-02-01T03:44:52.600Z,2.66
2023-02-01T03:46:28.865Z,2.63
2023-02-01T03:48:01.153Z,2.64
2023-02-01T03:49:35.048Z,2.62
2023-02-01T03:51:06.631Z,2.61
2023-02-01T03:52:41.110Z,2.58
2023-02-01T03:54:14.044Z,2.55
2023-02-01T03:55:45.654Z,2.56
2023-02-01T03:57:20.576Z,2.52
2023-02-01T03:59:01.120Z,2.55
2023-02-01T04:00:32.698Z,2.53
2023-02-01T04:02:04.361Z,2.50
2023-02-01T04:03:35.998Z,2.48
2023-02-01T04:05:08.270Z,2.50
2023-02-01T04:06:39.853Z,2.50
2023-02-01T04:08:12.770Z,2.48
2023-02-01T04:09:44.352Z,2.45
2023-02-01T04:11:16.004Z,2.45
2023-02-01T04:12:47.596Z,2.45
2023-02-01T04:14:19.348Z,2.46
2023-02-01T04:15:50.928Z,2.47
2023-02-01T04:17:22.601Z,2.46
2023-02-01T04:18:54.250Z,2.45
2023-02-01T04:20:25.945Z,2.47
2023-02-01T04:21:57.645Z,2.47
2023-02-01T04:23:30.615Z,2.48
2023-02-01T04:25:02.195Z,2.48
2023-02-01T04:26:33.828Z,2.47
2023-02-01T04:28:05.824Z,2.48
2023-02-01T04:29:37.435Z,2.49
2023-02-01T04:31:09.300Z,2.49
2023-02-01T04:32:40.917Z,2.50
2023-02-01T04:34:12.480Z,2.52
2023-02-01T04:35:44.131Z,2.53
2023-02-01T04:37:15.712Z,2.50
2023-02-01T04:38:48.698Z,2.48
2023-02-01T04:40:20.339Z,2.47
2023-02-01T04:41:52.030Z,2.49
2023-02-01T04:43:23.605Z,2.47
2023-02-01T04:44:55.202Z,2.45
2023-02-01T04:46:26.812Z,2.46
2023-02-01T04:47:58.411Z,2.45
2023-02-01T04:49:29.976Z,2.46
2023-02-01T04:51:01.573Z,2.47
2023-02-01T04:52:33.151Z,2.44
2023-02-01T04:54:06.050Z,2.44
2023-02-01T04:55:37.619Z,2.47
2023-02-01T04:57:09.275Z,2.46
2023-02-01T04:58:40.820Z,2.45
2023-02-01T05:00:14.163Z,2.43
2023-02-01T05:01:48.569Z,2.41
2023-02-01T05:03:20.515Z,2.41
2023-02-01T05:04:52.135Z,2.42
2023-02-01T05:06:23.808Z,2.46
2023-02-01T05:07:55.457Z,2.42
2023-02-01T05:09:28.393Z,2.42
2023-02-01T05:11:00.185Z,2.43
2023-02-01T05:12:50.264Z,2.40
2023-02-01T05:14:21.851Z,2.37
2023-02-01T05:15:53.424Z,2.37
2023-02-01T05:17:25.015Z,2.37
2023-02-01T05:18:56.601Z,2.38
2023-02-01T05:20:28.141Z,2.37
2023-02-01T05:21:59.778Z,2.40
2023-02-01T05:23:31.418Z,2.35
2023-02-01T05:25:06.821Z,2.34
2023-02-01T05:26:40.005Z,2.39
2023-02-01T05:28:11.610Z,2.39
2023-02-01T05:29:43.337Z,2.42
2023-02-01T05:31:15.011Z,2.42
2023-02-01T05:32:46.698Z,2.41
2023-02-01T05:34:18.329Z,2.43
2023-02-01T05:35:51.414Z,2.41
2023-02-01T05:37:23.007Z,2.42
2023-02-01T05:38:54.684Z,2.44
2023-02-01T05:40:27.612Z,2.45
2023-02-01T05:41:59.192Z,2.42
2023-02-01T05:43:30.807Z,2.42
2023-02-01T05:45:02.398Z,2.42
2023-02-01T05:46:34.496Z,2.39
2023-02-01T05:48:06.251Z,2.40
2023-02-01T05:49:37.872Z,2.36
2023-02-01T05:51:12.169Z,2.39
2023-02-01T05:52:43.771Z,2.36
2023-02-01T05:54:15.417Z,2.34
2023-02-01T05:55:48.397Z,2.35
2023-02-01T05:57:19.971Z,2.32
2023-02-01T05:58:51.547Z,2.32
2023-02-01T06:00:24.334Z,2.32
2023-02-01T06:01:56.272Z,2.32
2023-02-01T06:03:28.428Z,2.33
2023-02-01T06:05:00.029Z,2.31
2023-02-01T06:06:31.603Z,2.31
2023-02-01T06:08:03.354Z,2.34
2023-02-01T06:09:34.927Z,2.35
2023-02-01T06:11:07.980Z,2.32
2023-02-01T06:12:39.563Z,2.34
2023-02-01T06:14:11.139Z,2.34
2023-02-01T06:15:44.986Z,2.36
2023-02-01T06:17:16.833Z,2.34
2023-02-01T06:18:48.422Z,2.34
2023-02-01T06:20:20.390Z,2.36
2023-02-01T06:21:52.288Z,2.37
2023-02-01T06:23:24.751Z,2.36
2023-02-01T06:24:56.465Z,2.33
2023-02-01T06:26:30.302Z,2.31
2023-02-01T06:28:02.071Z,2.32
2023-02-01T06:29:33.712Z,2.31
2023-02-01T06:31:07.441Z,2.30
2023-02-01T06:32:40.356Z,2.32
2023-02-01T06:34:11.993Z,2.32
2023-02-01T06:35:45.212Z,2.34
2023-02-01T06:37:16.907Z,2.29
2023-02-01T06:38:48.567Z,2.32
2023-02-01T06:40:20.355Z,2.31
2023-02-01T06:41:53.311Z,2.30
2023-02-01T06:43:25.529Z,2.29
2023-02-01T06:44:57.232Z,2.30
2023-02-01T06:46:28.909Z,2.35
2023-02-01T06:48:01.472Z,2.34
2023-02-01T06:49:33.129Z,2.37
2023-02-01T06:51:05.382Z,2.39
2023-02-01T06:52:37.241Z,2.36
2023-02-01T06:54:08.817Z,2.33
2023-02-01T06:55:40.383Z,2.34
2023-02-01T06:57:13.387Z,2.36
2023-02-01T06:58:45.090Z,2.36
2023-02-01T07:00:17.605Z,2.37
2023-02-01T07:01:49.274Z,2.35
2023-02-01T07:03:20.987Z,2.34
2023-02-01T07:04:52.544Z,2.35
2023-02-01T07:06:24.120Z,2.34
2023-02-01T07:07:55.743Z,2.33
2023-02-01T07:09:27.397Z,2.36
2023-02-01T07:11:03.499Z,2.36
2023-02-01T07:12:36.866Z,2.35
2023-02-01T07:14:08.665Z,2.40
2023-02-01T07:15:40.249Z,2.42
2023-02-01T07:17:11.932Z,2.42
2023-02-01T07:18:43.564Z,2.44
2023-02-01T07:20:15.199Z,2.44
2023-02-01T07:21:46.778Z,2.42
2023-02-01T07:23:18.373Z,2.45
2023-02-01T07:24:49.955Z,2.45
2023-02-01T07:26:21.855Z,2.44
2023-02-01T07:27:54.922Z,2.40
2023-02-01T07:29:26.827Z,2.40
2023-02-01T07:31:03.426Z,2.38
2023-02-01T07:32:35.148Z,2.37
2023-02-01T07:34:06.780Z,2.38
2023-02-01T07:35:38.339Z,2.37
2023-02-01T07:37:10.012Z,2.36
2023-02-01T07:38:41.711Z,2.36
2023-02-01T07:40:13.414Z,2.37
2023-02-01T07:41:44.989Z,2.40
2023-02-01T07:43:17.988Z,2.43
2023-02-01T07:44:49.574Z,2.42
2023-02-01T07:46:21.391Z,2.40
2023-02-01T07:47:53.410Z,2.38
2023-02-01T07:49:25.048Z,2.38
2023-02-01T07:50:59.788Z,2.40
2023-02-01T07:52:31.499Z,2.37
2023-02-01T07:54:03.165Z,2.38
2023-02-01T07:55:35.837Z,2.35
2023-02-01T07:57:09.521Z,2.36
2023-02-01T07:58:42.601Z,2.35
2023-02-01T08:00:33.776Z,2.37
2023-02-01T08:02:05.382Z,2.32
2023-02-01T08:03:36.991Z,2.33
2023-02-01T08:05:08.966Z,2.32
2023-02-01T08:06:40.827Z,2.31
2023-02-01T08:08:12.447Z,2.30
2023-02-01T08:09:44.135Z,2.38
2023-02-01T08:11:15.840Z,2.36
2023-02-01T08:12:52.472Z,2.37
2023-02-01T08:14:25.428Z,2.38
2023-02-01T08:15:58.948Z,2.30
2023-02-01T08:17:31.276Z,2.31
2023-02-01T08:19:02.907Z,2.37
2023-02-01T08:20:36.450Z,2.35
2023-02-01T08:22:08.019Z,2.38
2023-02-01T08:23:40.181Z,2.38
2023-02-01T08:25:11.832Z,2.36
2023-02-01T08:26:43.540Z,2.31
2023-02-01T08:28:15.124Z,2.33
2023-02-01T08:29:49.702Z,2.35
2023-02-01T08:31:22.429Z,2.41
2023-02-01T08:32:54.055Z,2.44
2023-02-01T08:34:25.675Z,2.43
2023-02-01T08:35:57.246Z,2.44
2023-02-01T08:37:28.876Z,2.47
2023-02-01T08:39:00.795Z,2.49
2023-02-01T08:40:33.582Z,2.44
2023-02-01T08:42:23.517Z,2.48
2023-02-01T08:43:55.386Z,2.49
2023-02-01T08:45:33.101Z,2.49
2023-02-01T08:47:04.786Z,2.53
2023-02-01T08:48:36.538Z,2.53
2023-02-01T08:50:09.698Z,2.57
2023-02-01T08:51:41.271Z,2.59
2023-02-01T08:53:14.943Z,2.60
2023-02-01T08:54:46.599Z,2.59
2023-02-01T08:56:18.656Z,2.62
2023-02-01T08:57:50.284Z,2.63
2023-02-01T08:59:21.839Z,2.64
2023-02-01T09:00:54.953Z,2.66
2023-02-01T09:02:26.598Z,2.68
2023-02-01T09:03:58.290Z,2.70
2023-02-01T09:05:44.004Z,2.72
2023-02-01T09:07:20.269Z,2.71
2023-02-01T09:08:52.213Z,2.76
2023-02-01T09:10:34.693Z,2.78
2023-02-01T09:12:07.175Z,2.80
2023-02-01T09:13:38.790Z,2.83
2023-02-01T09:15:10.586Z,2.83
2023-02-01T09:16:43.641Z,2.83
2023-02-01T09:18:15.434Z,2.83
2023-02-01T09:19:47.009Z,2.84
2023-02-01T09:21:18.578Z,2.84
2023-02-01T09:22:50.243Z,2.84
2023-02-01T09:24:21.882Z,2.82
2023-02-01T09:25:53.473Z,2.81
2023-02-01T09:27:25.143Z,2.81
2023-02-01T09:28:56.707Z,2.81
2023-02-01T09:30:30.422Z,2.83
2023-02-01T09:32:04.860Z,2.83
2023-02-01T09:33:36.673Z,2.83
2023-02-01T09:36:49.279Z,2.86
2023-02-01T09:38:23.314Z,2.87
2023-02-01T09:39:55.245Z,2.91
2023-02-01T09:41:51.848Z,2.91
2023-02-01T09:43:31.010Z,2.93
2023-02-01T09:45:13.247Z,2.97
2023-02-01T09:46:45.165Z,2.98
2023-02-01T09:48:19.317Z,3.02
2023-02-01T09:49:53.915Z,3.03
2023-02-01T09:51:28.490Z,3.06
2023-02-01T09:53:03.859Z,3.10
2023-02-01T09:54:42.901Z,3.11
2023-02-01T09:56:27.841Z,3.18
2023-02-01T09:58:03.672Z,3.15
2023-02-01T09:59:38.995Z,3.13
2023-02-01T10:01:14.496Z,3.17
2023-02-01T10:02:49.038Z,3.19
2023-02-01T10:04:22.454Z,3.21
2023-02-01T10:06:27.875Z,3.22
2023-02-01T10:08:03.047Z,3.25
2023-02-01T10:09:51.633Z,3.23
2023-02-01T10:11:41.014Z,3.26
2023-02-01T10:18:53.461Z,3.33
2023-02-01T10:20:28.639Z,3.36
2023-02-01T10:22:01.780Z,3.38
2023-02-01T10:23:47.197Z,3.40
2023-02-01T10:25:20.576Z,3.43
2023-02-01T10:26:56.581Z,3.48
2023-02-01T10:28:33.982Z,3.54
2023-02-01T10:30:14.196Z,3.55
2023-02-01T10:31:46.029Z,3.55
2023-02-01T10:33:19.863Z,3.61
2023-02-01T10:34:53.527Z,3.59
2023-02-01T10:36:30.444Z,3.69
2023-02-01T10:38:03.578Z,3.77
2023-02-01T10:39:38.034Z,3.72
2023-02-01T10:41:12.984Z,3.71
2023-02-01T10:42:47.990Z,3.72
2023-02-01T10:44:21.501Z,3.69
2023-02-01T10:45:53.100Z,3.64
2023-02-01T10:47:24.870Z,3.61
2023-02-01T10:48:56.803Z,3.66
2023-02-01T10:50:35.751Z,3.76
2023-02-01T10:52:12.375Z,3.90
2023-02-01T10:53:47.033Z,4.00
2023-02-01T10:55:30.920Z,4.06
2023-02-01T10:57:02.539Z,4.09
2023-02-01T10:58:34.279Z,4.05
2023-02-01T11:00:20.187Z,4.11
2023-02-01T11:01:59.691Z,4.04
2023-02-01T11:03:44.832Z,4.05
2023-02-01T11:05:19.890Z,4.07
2023-02-01T11:06:53.579Z,4.13
2023-02-01T11:08:26.718Z,4.16
2023-02-01T11:11:54.635Z,4.08
2023-02-01T11:13:57.178Z,4.15
2023-02-01T11:15:31.713Z,4.19
2023-02-01T11:17:13.461Z,4.19
2023-02-01T11:18:45.047Z,4.15
2023-02-01T11:20:39.035Z,4.18
2023-02-01T11:22:46.555Z,4.25
2023-02-01T11:24:26.189Z,4.27
2023-02-01T11:26:04.356Z,4.31
2023-02-01T11:27:40.294Z,4.40
2023-02-01T11:29:18.566Z,4.38
2023-02-01T11:31:00.458Z,4.45
2023-02-01T11:32:33.208Z,4.55
2023-02-01T11:34:08.306Z,4.61
2023-02-01T11:35:40.965Z,4.46
2023-02-01T11:37:16.274Z,4.46
2023-02-01T11:39:25.142Z,4.57
2023-02-01T11:40:56.776Z,4.75
2023-02-01T11:42:29.254Z,4.74
2023-02-01T11:44:01.986Z,4.62
2023-02-01T11:45:35.752Z,4.62
2023-02-01T11:47:21.393Z,4.46
2023-02-01T11:48:53.523Z,4.43
2023-02-01T11:50:29.673Z,4.48
2023-02-01T11:52:08.030Z,4.45
2023-02-01T11:53:53.810Z,4.49
2023-02-01T11:55:36.069Z,4.47
2023-02-01T11:57:20.428Z,4.51
2023-02-01T11:59:02.940Z,4.45
2023-02-01T12:00:49.776Z,4.43
2023-02-01T12:02:50.994Z,4.48
2023-02-01T12:05:00.816Z,4.52
2023-02-01T12:06:37.097Z,4.56
2023-02-01T12:08:37.271Z,4.59
2023-02-01T12:10:18.588Z,4.65
2023-02-01T12:11:58.214Z,4.80
2023-02-01T12:13:39.738Z,4.92
2023-02-01T12:15:24.756Z,4.93
2023-02-01T12:17:10.111Z,4.86
2023-02-01T12:18:55.453Z,4.86
2023-02-01T12:20:49.903Z,4.85
2023-02-01T12:22:29.401Z,4.82
2023-02-01T12:24:30.607Z,4.80
2023-02-01T12:26:14.478Z,4.82
2023-02-01T12:28:04.107Z,4.82
2023-02-01T12:29:50.180Z,4.81
2023-02-01T12:31:29.510Z,4.80
2023-02-01T12:33:05.766Z,4.82
2023-02-01T12:34:52.843Z,4.80
2023-02-01T12:36:27.095Z,4.87
2023-02-01T12:38:06.367Z,4.84
2023-02-01T12:39:40.097Z,4.81
2023-02-01T12:41:45.796Z,4.78
2023-02-01T12:43:26.177Z,4.78
2023-02-01T12:45:00.857Z,4.74
2023-02-01T12:46:34.112Z,4.75
2023-02-01T12:48:19.467Z,4.76
2023-02-01T12:49:55.457Z,4.78
2023-02-01T12:51:28.753Z,4.77
2023-02-01T12:53:07.424Z,4.75
2023-02-01T12:54:41.481Z,4.78
2023-02-01T12:56:15.792Z,4.79
2023-02-01T12:57:51.279Z,4.75
2023-02-01T12:59:27.371Z,4.71
2023-02-01T13:01:00.805Z,4.70
2023-02-01T13:02:38.883Z,4.67
2023-02-01T13:04:13.341Z,4.66
2023-02-01T13:05:48.080Z,4.62
2023-02-01T13:07:21.156Z,4.59
2023-02-01T13:09:03.995Z,4.58
2023-02-01T13:10:36.394Z,4.54
2023-02-01T13:12:13.605Z,4.51
2023-02-01T13:13:49.102Z,4.51
2023-02-01T13:15:24.207Z,4.52
2023-02-01T13:16:59.937Z,4.50
2023-02-01T13:18:35.068Z,4.54
2023-02-01T13:20:10.958Z,4.51
2023-02-01T13:21:44.329Z,4.52
2023-02-01T13:23:20.204Z,4.47
2023-02-01T13:24:53.035Z,4.41
2023-02-01T13:26:24.660Z,4.39
2023-02-01T13:27:56.600Z,4.35
2023-02-01T13:29:28.373Z,4.35
2023-02-01T13:31:29.238Z,4.29
2023-02-01T13:33:53.355Z,4.27
2023-02-01T13:35:23.542Z,4.28
2023-02-01T13:37:05.759Z,4.26
2023-02-01T13:39:08.413Z,4.28
2023-02-01T13:40:41.975Z,4.29
2023-02-01T13:42:16.182Z,4.31
2023-02-01T13:43:49.737Z,4.32
2023-02-01T13:45:23.087Z,4.33
2023-02-01T13:46:59.863Z,4.34
2023-02-01T13:48:37.121Z,4.37
2023-02-01T13:50:14.248Z,4.37
2023-02-01T13:51:47.420Z,4.33
2023-02-01T13:53:21.853Z,4.32
2023-02-01T13:55:09.331Z,4.32
2023-02-01T13:56:42.287Z,4.29
2023-02-01T13:58:20.309Z,4.31
2023-02-01T14:00:08.460Z,4.31
2023-02-01T14:01:44.387Z,4.29
2023-02-01T14:03:20.184Z,4.32
2023-02-01T14:04:54.565Z,4.35
2023-02-01T14:06:47.135Z,4.30
2023-02-01T14:08:23.469Z,4.27
2023-02-01T14:09:55.148Z,4.27
2023-02-01T14:11:38.060Z,4.28
2023-02-01T14:13:13.609Z,4.29
2023-02-01T14:14:47.057Z,4.34
2023-02-01T14:16:18.886Z,4.34
2023-02-01T14:17:52.931Z,4.34
2023-02-01T14:19:26.659Z,4.34
2023-02-01T14:21:22.038Z,4.34
2023-02-01T14:23:03.952Z,4.35
2023-02-01T14:24:35.777Z,4.35
2023-02-01T14:26:18.842Z,4.35
2023-02-01T14:27:50.444Z,4.33
2023-02-01T14:29:28.073Z,4.37
2023-02-01T14:31:02.636Z,4.38
2023-02-01T14:32:35.773Z,4.37
2023-02-01T14:34:13.994Z,4.37
2023-02-01T14:35:54.736Z,4.37
2023-02-01T14:37:28.277Z,4.37
2023-02-01T14:39:00.027Z,4.36
2023-02-01T14:40:31.900Z,4.42
2023-02-01T14:42:06.017Z,4.47
2023-02-01T14:43:50.581Z,4.47
2023-02-01T14:45:52.357Z,4.46
2023-02-01T14:47:34.166Z,4.51
2023-02-01T14:49:06.607Z,4.47
2023-02-01T14:50:38.994Z,4.47
2023-02-01T14:52:14.415Z,4.45
2023-02-01T14:53:47.658Z,4.51
2023-02-01T14:55:26.638Z,4.48
2023-02-01T14:56:58.381Z,4.48
2023-02-01T14:58:36.881Z,4.43
2023-02-01T15:00:17.492Z,4.45
2023-02-01T15:01:51.386Z,4.44
2023-02-01T15:03:41.117Z,4.46
2023-02-01T15:05:30.701Z,4.46
2023-02-01T15:07:08.058Z,4.47
2023-02-01T15:08:41.190Z,4.44
2023-02-01T15:10:12.770Z,4.44
2023-02-01T15:12:01.984Z,4.47
2023-02-01T15:13:33.604Z,4.48
2023-02-01T15:15:12.679Z,4.48
2023-02-01T15:16:50.777Z,4.46
2023-02-01T15:18:23.058Z,4.47
2023-02-01T15:19:54.904Z,4.44
2023-02-01T15:21:28.679Z,4.46
2023-02-01T15:23:03.492Z,4.42
2023-02-01T15:24:36.636Z,4.43
2023-02-01T15:26:08.488Z,4.42
2023-02-01T15:27:40.134Z,4.42
2023-02-01T15:29:13.085Z,4.46
2023-02-01T15:30:53.297Z,4.45
2023-02-01T15:32:32.423Z,4.40
2023-02-01T15:34:04.045Z,4.43
2023-02-01T15:35:43.364Z,4.42
2023-02-01T15:37:19.984Z,4.46
2023-02-01T15:38:56.221Z,4.48
2023-02-01T15:40:29.520Z,4.40
2023-02-01T15:42:03.048Z,4.41
2023-02-01T15:44:10.229Z,4.37
2023-02-01T15:45:41.916Z,4.37
2023-02-01T15:47:16.067Z,4.35
2023-02-01T15:48:48.753Z,4.41
2023-02-01T15:50:22.314Z,4.35
2023-02-01T15:51:55.035Z,4.38
2023-02-01T15:53:31.881Z,4.41
2023-02-01T15:55:04.818Z,4.34
2023-02-01T15:56:39.263Z,4.32
2023-02-01T15:58:16.392Z,4.29
2023-02-01T15:59:48.438Z,4.34
2023-02-01T16:01:20.735Z,4.28
2023-02-01T16:02:53.105Z,4.26
2023-02-01T16:04:27.586Z,4.24
2023-02-01T16:06:00.312Z,4.27
2023-02-01T16:07:33.264Z,4.26
2023-02-01T16:09:11.288Z,4.32
2023-02-01T16:10:44.232Z,4.23
2023-02-01T16:12:24.798Z,4.23
2023-02-01T16:13:56.418Z,4.20
2023-02-01T16:15:30.396Z,4.22
2023-02-01T16:17:02.028Z,4.19
2023-02-01T16:18:34.011Z,4.20
2023-02-01T16:20:06.545Z,4.21
2023-02-01T16:21:38.208Z,4.18
2023-02-01T16:23:10.501Z,4.19
2023-02-01T16:24:42.136Z,4.20
2023-02-01T16:26:13.842Z,4.19
2023-02-01T16:27:46.799Z,4.21
2023-02-01T16:29:18.983Z,4.22
2023-02-01T16:30:50.589Z,4.23
2023-02-01T16:32:22.306Z,4.14
2023-02-01T16:33:53.949Z,4.14
2023-02-01T16:35:26.798Z,4.19
2023-02-01T16:36:58.544Z,4.15
2023-02-01T16:38:30.204Z,4.18
2023-02-01T16:40:01.787Z,4.18
2023-02-01T16:41:33.399Z,4.18
2023-02-01T16:43:12.267Z,4.21
2023-02-01T16:44:44.166Z,4.21
2023-02-01T16:46:17.240Z,4.12
2023-02-01T16:47:53.490Z,4.16
2023-02-01T16:49:25.228Z,4.16
2023-02-01T16:50:58.260Z,4.13
2023-02-01T16:52:29.912Z,4.16
2023-02-01T16:54:01.689Z,4.18
2023-02-01T16:55:33.326Z,4.14
2023-02-01T16:57:05.548Z,4.16
2023-02-01T16:58:42.076Z,4.25
2023-02-01T17:00:24.577Z,4.19
2023-02-01T17:01:56.887Z,4.13
2023-02-01T17:03:28.489Z,4.19
2023-02-01T17:05:00.111Z,4.14
2023-02-01T17:06:33.504Z,4.17
2023-02-01T17:08:06.644Z,4.12
2023-02-01T17:09:38.367Z,4.15
2023-02-01T17:11:10.754Z,4.15
2023-02-01T17:12:42.400Z,4.15
2023-02-01T17:14:17.188Z,4.10
2023-02-01T17:15:50.395Z,4.12
2023-02-01T17:17:32.809Z,4.07
2023-02-01T17:19:52.859Z,4.06
2023-02-01T17:21:25.760Z,4.10
2023-02-01T17:22:57.685Z,4.10
2023-02-01T17:24:42.311Z,4.10
2023-02-01T17:26:19.496Z,4.08
2023-02-01T17:27:51.107Z,4.12
2023-02-01T17:29:24.614Z,4.11
2023-02-01T17:30:56.332Z,4.10
2023-02-01T17:32:28.044Z,4.06
2023-02-01T17:34:00.738Z,4.11
2023-02-01T17:35:32.521Z,4.08
2023-02-01T17:37:06.966Z,4.09
2023-02-01T17:38:38.563Z,4.10
2023-02-01T17:40:12.665Z,4.09
2023-02-01T17:41:44.287Z,4.10
2023-02-01T17:43:20.954Z,4.08
2023-02-01T17:44:58.245Z,4.11
2023-02-01T17:46:30.170Z,4.11
2023-02-01T17:48:02.102Z,4.13
2023-02-01T17:49:35.807Z,4.10
2023-02-01T17:51:18.155Z,4.04
2023-02-01T17:52:58.948Z,4.07
2023-02-01T17:54:30.568Z,4.08
2023-02-01T17:56:02.235Z,4.06
2023-02-01T17:57:36.872Z,4.05
2023-02-01T17:59:08.592Z,4.07
2023-02-01T18:00:41.682Z,4.09
2023-02-01T18:02:18.552Z,4.08
2023-02-01T18:03:50.888Z,4.07
2023-02-01T18:05:24.148Z,4.06
2023-02-01T18:06:55.981Z,4.07
2023-02-01T18:08:29.427Z,4.06
2023-02-01T18:10:06.843Z,4.08
2023-02-01T18:11:44.971Z,4.05
2023-02-01T18:13:16.659Z,4.05
2023-02-01T18:14:48.327Z,4.10
2023-02-01T18:16:22.173Z,4.13
2023-02-01T18:17:54.003Z,4.10
2023-02-01T18:19:29.767Z,4.05
2023-02-01T18:21:01.407Z,4.14
2023-02-01T18:22:33.587Z,4.17
2023-02-01T18:24:05.851Z,4.12
2023-02-01T18:25:38.662Z,4.13
2023-02-01T18:27:10.302Z,4.09
2023-02-01T18:28:42.564Z,4.13
2023-02-01T18:30:14.488Z,4.15
2023-02-01T18:31:49.429Z,4.07
2023-02-01T18:33:21.262Z,4.09
2023-02-01T18:34:52.864Z,4.10
2023-02-01T18:36:24.511Z,4.11
2023-02-01T18:37:56.582Z,4.06
2023-02-01T18:39:28.239Z,4.11
2023-02-01T18:41:01.156Z,4.07
2023-02-01T18:42:32.789Z,4.05
2023-02-01T18:44:04.593Z,4.11
2023-02-01T18:45:37.073Z,4.08
2023-02-01T18:47:10.680Z,4.07
2023-02-01T18:48:42.561Z,4.15
2023-02-01T18:50:14.227Z,4.13
2023-02-01T18:51:46.658Z,4.14
2023-02-01T18:53:23.905Z,4.15
2023-02-01T18:55:00.074Z,4.12
2023-02-01T18:56:31.989Z,4.13
2023-02-01T18:58:04.532Z,4.13
2023-02-01T18:59:36.285Z,4.15
2023-02-01T19:01:14.244Z,4.19
2023-02-01T19:02:47.709Z,4.16
2023-02-01T19:04:25.619Z,4.18
2023-02-01T19:05:57.905Z,4.11
2023-02-01T19:07:29.533Z,4.18
2023-02-01T19:09:01.125Z,4.18
2023-02-01T19:10:33.736Z,4.19
2023-02-01T19:12:05.602Z,4.16
2023-02-01T19:13:37.193Z,4.15
2023-02-01T19:15:12.907Z,4.12
2023-02-01T19:16:44.598Z,4.17
2023-02-01T19:18:20.236Z,4.19
2023-02-01T19:19:52.377Z,4.15
2023-02-01T19:21:24.025Z,4.16
2023-02-01T19:22:55.662Z,4.17
2023-02-01T19:24:28.254Z,4.12
2023-02-01T19:25:59.902Z,4.11
2023-02-01T19:27:31.490Z,4.17
2023-02-01T19:29:03.104Z,4.14
2023-02-01T19:30:34.760Z,4.15
2023-02-01T19:32:06.409Z,4.17
2023-02-01T19:33:39.757Z,4.12
2023-02-01T19:35:13.209Z,4.13
2023-02-01T19:36:44.850Z,4.12
2023-02-01T19:38:16.441Z,4.10
2023-02-01T19:39:47.995Z,4.13
2023-02-01T19:41:19.601Z,4.11
2023-02-01T19:42:51.184Z,4.11
2023-02-01T19:44:22.971Z,4.09
2023-02-01T19:45:54.722Z,4.11
2023-02-01T19:47:26.282Z,4.14
2023-02-01T19:48:59.474Z,4.13
2023-02-01T19:50:31.064Z,4.11
2023-02-01T19:52:02.696Z,4.13
2023-02-01T19:53:34.366Z,4.10
2023-02-01T19:55:06.532Z,4.08
2023-02-01T19:56:38.109Z,4.12
2023-02-01T19:58:09.743Z,4.12
2023-02-01T19:59:41.403Z,4.11
2023-02-01T20:01:13.292Z,4.09
2023-02-01T20:02:46.202Z,4.09
2023-02-01T20:04:19.306Z,4.10
2023-02-01T20:05:51.391Z,4.08
2023-02-01T20:07:23.023Z,4.06
2023-02-01T20:08:54.911Z,4.08
2023-02-01T20:10:26.532Z,4.10
2023-02-01T20:11:58.170Z,4.04
2023-02-01T20:13:29.872Z,4.09
2023-02-01T20:15:02.199Z,4.09
2023-02-01T20:16:34.350Z,4.06
2023-02-01T20:18:06.051Z,4.04
2023-02-01T20:19:39.016Z,4.01
2023-02-01T20:21:10.638Z,4.01
2023-02-01T20:22:45.081Z,4.00
2023-02-01T20:24:17.380Z,4.00
2023-02-01T20:25:49.892Z,4.01
2023-02-01T20:27:22.671Z,3.97
2023-02-01T20:28:55.701Z,3.98
2023-02-01T20:30:32.098Z,4.00
2023-02-01T20:32:04.145Z,4.05
2023-02-01T20:33:35.754Z,4.02
2023-02-01T20:35:10.921Z,3.97
2023-02-01T20:36:44.960Z,4.00
2023-02-01T20:38:16.605Z,4.02
2023-02-01T20:39:50.751Z,4.03
2023-02-01T20:41:22.464Z,4.01
2023-02-01T20:42:54.126Z,4.01
2023-02-01T20:44:25.745Z,3.99
2023-02-01T20:45:57.351Z,4.02
2023-02-01T20:47:29.314Z,4.00
2023-02-01T20:49:00.954Z,4.02
2023-02-01T20:50:34.423Z,3.99
2023-02-01T20:52:06.000Z,4.03
2023-02-01T20:53:37.654Z,3.98
2023-02-01T20:55:09.578Z,3.98
2023-02-01T20:56:41.180Z,3.99
2023-02-01T20:58:16.852Z,3.99
2023-02-01T20:59:49.281Z,3.95
2023-02-01T21:01:20.920Z,4.03
2023-02-01T21:02:52.591Z,3.98
2023-02-01T21:04:27.165Z,3.95
2023-02-01T21:06:04.522Z,4.00
2023-02-01T21:07:36.282Z,4.01
2023-02-01T21:09:07.852Z,3.99
2023-02-01T21:10:39.903Z,3.97
2023-02-01T21:12:14.373Z,4.01
2023-02-01T21:13:51.745Z,3.99